Broadway, Washington
Current Conditions -  °F | °C
As of 9:53 PM on Saturday 22 Nov 2014 (Local Time) from KBFI Reporting Station
Broken Clouds Broken Clouds  
Wind Chill: 42°   Ceiling: 3000
Heat Index: 46°   Visibility: 10mi
Dew Point: 40°   Wind: 7mph
Humidity: 79%   Direction: 150°SSE
Pressure: 30.1"   Gusts: NA
Location:  47.6341°N, 122.322°W
Report Text: KBFI 230553Z 15006KT 10SM BKN030 08/04 A3010 RMK AO2 SLP193 T00780044 10094 20067 51020
Loading
Personal Weather Stations






























Interactive Weather Map New forecast layout! Learn more

10-Day Weather Forecast

Advertisements
Track Severe Weather on mobile